This is the latest recevied weather packets stored in our database for station/object VA3BOO. If no packets are shown the sender has not sent any weather packets the latest 10 day(s).
| Time | Temp. | Humidity | Pressure | Rain* | Wind** | Luminosity | Snow |
|---|---|---|---|---|---|---|---|
| 1777979105 | 13.33° C | 85% | 1000.3 hPa | 0 mm | - | 77 W/m² | - |
| 1777978804 | 13.33° C | 86% | 1000.5 hPa | 0 mm | - | 44 W/m² | - |
| 1777978504 | 13.33° C | 87% | 1000.3 hPa | 0 mm | - | 37 W/m² | - |
| 1777978204 | 12.78° C | 90% | 1000.1 hPa | 0 mm | - | 44 W/m² | - |
| 1777977904 | 12.22° C | 91% | 1000.1 hPa | 0 mm | - | 36 W/m² | - |
| 1777977604 | 12.22° C | 91% | 1000.2 hPa | 0 mm | - | 27 W/m² | - |
| 1777977304 | 12.22° C | 90% | 1000.4 hPa | 0 mm | - | 23 W/m² | - |
| 1777977004 | 12.22° C | 90% | 1000.3 hPa | 0.25 mm | - | 19 W/m² | - |
| 1777976704 | 12.22° C | 90% | 1000.1 hPa | 0.25 mm | - | 14 W/m² | - |
| 1777976404 | 12.22° C | 90% | 1000.1 hPa | 0.25 mm | - | 12 W/m² | - |
| 1777976104 | 12.22° C | 89% | 1000.3 hPa | 0.25 mm | - | 9 W/m² | - |
| 1777975804 | 12.22° C | 89% | 1000 hPa | 1.02 mm | - | 8 W/m² | - |
| 1777975504 | 12.22° C | 89% | 1000.2 hPa | 1.52 mm | - | 2 W/m² | - |
| 1777975204 | 12.22° C | 88% | 1000.2 hPa | 1.78 mm | - | 2 W/m² | - |
| 1777974904 | 12.22° C | 89% | 1000.5 hPa | 1.78 mm | - | 1 W/m² | - |
| 1777974604 | 12.22° C | 89% | 1000.3 hPa | 1.78 mm | - | 0 W/m² | - |
| 1777974304 | 12.22° C | 88% | 1000.3 hPa | 1.78 mm | - | 0 W/m² | - |
| 1777974004 | 12.78° C | 87% | 1000.2 hPa | 1.78 mm | - | 0 W/m² | - |
| 1777973704 | 12.78° C | 87% | 1000 hPa | 1.78 mm | - | 0 W/m² | - |
| 1777973404 | 12.78° C | 87% | 1000 hPa | 1.52 mm | - | 0 W/m² | - |
| 1777973104 | 12.78° C | 88% | 1000 hPa | 1.52 mm | - | 0 W/m² | - |
| 1777972804 | 12.22° C | 88% | 1000.2 hPa | 1.52 mm | - | 0 W/m² | - |
| 1777972504 | 12.78° C | 85% | 1000.2 hPa | 1.52 mm | - | 0 W/m² | - |
| 1777972204 | 13.33° C | 81% | 1000.7 hPa | 0.76 mm | - | 0 W/m² | - |
| 1777971904 | 13.89° C | 76% | 1000.4 hPa | 0.25 mm | - | 0 W/m² | - |
* Rain latest hour (hover to see other rain measurements)
** Current wind speed in m/s (hover to see current wind gust speed)